sensor_id;sensor_type;location;lat;lon;timestamp;P1;durP1;ratioP1;P2;durP2;ratioP2
14734;SDS011;7458;49.002;8.472;2024-03-23T00:51:47;9.70;;;7.30;;
14734;SDS011;7458;49.002;8.472;2024-03-23T00:54:13;9.65;;;7.05;;
14734;SDS011;7458;49.002;8.472;2024-03-23T00:56:39;8.82;;;7.90;;
14734;SDS011;7458;49.002;8.472;2024-03-23T00:59:13;12.77;;;8.13;;
14734;SDS011;7458;49.002;8.472;2024-03-23T01:01:39;10.70;;;7.43;;
14734;SDS011;7458;49.002;8.472;2024-03-23T01:04:05;10.18;;;8.57;;
14734;SDS011;7458;49.002;8.472;2024-03-23T01:06:31;17.17;;;10.45;;
14734;SDS011;7458;49.002;8.472;2024-03-23T01:08:57;14.27;;;8.07;;
14734;SDS011;7458;49.002;8.472;2024-03-23T01:11:23;11.20;;;7.75;;
14734;SDS011;7458;49.002;8.472;2024-03-23T01:13:49;11.25;;;8.27;;
14734;SDS011;7458;49.002;8.472;2024-03-23T01:16:16;8.93;;;7.07;;
14734;SDS011;7458;49.002;8.472;2024-03-23T01:18:42;13.05;;;10.38;;
14734;SDS011;7458;49.002;8.472;2024-03-23T01:21:08;11.48;;;7.80;;
14734;SDS011;7458;49.002;8.472;2024-03-23T01:23:34;12.55;;;9.52;;
14734;SDS011;7458;49.002;8.472;2024-03-23T01:26:00;9.60;;;8.27;;
14734;SDS011;7458;49.002;8.472;2024-03-23T01:28:27;14.25;;;9.85;;
14734;SDS011;7458;49.002;8.472;2024-03-23T01:30:53;11.30;;;8.75;;
14734;SDS011;7458;49.002;8.472;2024-03-23T01:33:19;13.68;;;9.63;;
14734;SDS011;7458;49.002;8.472;2024-03-23T01:35:45;14.52;;;8.85;;
14734;SDS011;7458;49.002;8.472;2024-03-23T01:38:12;10.20;;;8.80;;
14734;SDS011;7458;49.002;8.472;2024-03-23T01:40:38;11.82;;;10.63;;
14734;SDS011;7458;49.002;8.472;2024-03-23T01:43:04;15.45;;;8.55;;
14734;SDS011;7458;49.002;8.472;2024-03-23T01:45:35;16.13;;;10.32;;
14734;SDS011;7458;49.002;8.472;2024-03-23T01:48:02;12.23;;;8.48;;
14734;SDS011;7458;49.002;8.472;2024-03-23T01:50:28;12.32;;;8.60;;
14734;SDS011;7458;49.002;8.472;2024-03-23T01:52:58;10.45;;;8.57;;
14734;SDS011;7458;49.002;8.472;2024-03-23T01:55:32;8.98;;;6.65;;
14734;SDS011;7458;49.002;8.472;2024-03-23T01:57:58;8.05;;;6.22;;
14734;SDS011;7458;49.002;8.472;2024-03-23T02:00:24;7.95;;;5.35;;
14734;SDS011;7458;49.002;8.472;2024-03-23T02:02:52;6.68;;;5.85;;
14734;SDS011;7458;49.002;8.472;2024-03-23T02:05:19;7.47;;;6.00;;
14734;SDS011;7458;49.002;8.472;2024-03-23T02:07:45;8.50;;;5.68;;
14734;SDS011;7458;49.002;8.472;2024-03-23T02:10:12;7.93;;;5.78;;
14734;SDS011;7458;49.002;8.472;2024-03-23T02:12:38;4.50;;;3.85;;
14734;SDS011;7458;49.002;8.472;2024-03-23T02:15:04;11.65;;;4.93;;
14734;SDS011;7458;49.002;8.472;2024-03-23T02:17:32;5.90;;;4.50;;
14734;SDS011;7458;49.002;8.472;2024-03-23T02:20:00;6.78;;;4.68;;
14734;SDS011;7458;49.002;8.472;2024-03-23T02:22:36;4.38;;;3.97;;
14734;SDS011;7458;49.002;8.472;2024-03-23T02:25:06;8.63;;;4.40;;
14734;SDS011;7458;49.002;8.472;2024-03-23T02:27:32;9.07;;;4.70;;
14734;SDS011;7458;49.002;8.472;2024-03-23T02:29:59;5.32;;;3.33;;
14734;SDS011;7458;49.002;8.472;2024-03-23T02:32:26;6.22;;;4.07;;
14734;SDS011;7458;49.002;8.472;2024-03-23T02:34:52;5.10;;;3.53;;
14734;SDS011;7458;49.002;8.472;2024-03-23T02:37:18;7.22;;;4.00;;
14734;SDS011;7458;49.002;8.472;2024-03-23T02:39:44;5.68;;;4.10;;
14734;SDS011;7458;49.002;8.472;2024-03-23T02:42:10;5.50;;;3.92;;
14734;SDS011;7458;49.002;8.472;2024-03-23T02:44:36;5.65;;;5.03;;
14734;SDS011;7458;49.002;8.472;2024-03-23T02:47:03;5.40;;;4.43;;
14734;SDS011;7458;49.002;8.472;2024-03-23T02:49:29;3.53;;;2.63;;
14734;SDS011;7458;49.002;8.472;2024-03-23T02:51:55;6.45;;;4.13;;
14734;SDS011;7458;49.002;8.472;2024-03-23T02:54:21;12.23;;;3.92;;
14734;SDS011;7458;49.002;8.472;2024-03-23T02:56:47;5.35;;;3.88;;
14734;SDS011;7458;49.002;8.472;2024-03-23T02:59:13;5.00;;;3.60;;
14734;SDS011;7458;49.002;8.472;2024-03-23T03:01:39;4.30;;;3.30;;
14734;SDS011;7458;49.002;8.472;2024-03-23T03:04:06;5.20;;;3.05;;
14734;SDS011;7458;49.002;8.472;2024-03-23T03:06:32;6.60;;;3.85;;
14734;SDS011;7458;49.002;8.472;2024-03-23T03:08:58;8.48;;;4.15;;
14734;SDS011;7458;49.002;8.472;2024-03-23T03:11:24;6.75;;;4.53;;
14734;SDS011;7458;49.002;8.472;2024-03-23T03:13:50;7.03;;;4.55;;
14734;SDS011;7458;49.002;8.472;2024-03-23T03:16:16;8.07;;;4.93;;
14734;SDS011;7458;49.002;8.472;2024-03-23T03:18:43;7.53;;;5.88;;
14734;SDS011;7458;49.002;8.472;2024-03-23T03:21:11;7.72;;;4.80;;
14734;SDS011;7458;49.002;8.472;2024-03-23T03:23:37;17.25;;;6.07;;
14734;SDS011;7458;49.002;8.472;2024-03-23T03:26:04;8.18;;;6.03;;
14734;SDS011;7458;49.002;8.472;2024-03-23T03:28:33;9.02;;;5.40;;
14734;SDS011;7458;49.002;8.472;2024-03-23T03:31:00;10.98;;;6.15;;
14734;SDS011;7458;49.002;8.472;2024-03-23T03:33:26;9.18;;;5.95;;
14734;SDS011;7458;49.002;8.472;2024-03-23T03:35:53;7.53;;;6.00;;
14734;SDS011;7458;49.002;8.472;2024-03-23T03:38:20;8.95;;;6.55;;
14734;SDS011;7458;49.002;8.472;2024-03-23T03:40:46;8.00;;;6.68;;
14734;SDS011;7458;49.002;8.472;2024-03-23T03:43:12;8.95;;;6.25;;
14734;SDS011;7458;49.002;8.472;2024-03-23T03:45:38;6.88;;;5.60;;
14734;SDS011;7458;49.002;8.472;2024-03-23T03:48:05;10.23;;;7.55;;
14734;SDS011;7458;49.002;8.472;2024-03-23T03:50:31;12.50;;;6.68;;
14734;SDS011;7458;49.002;8.472;2024-03-23T03:52:57;9.38;;;7.00;;
14734;SDS011;7458;49.002;8.472;2024-03-23T03:55:23;10.15;;;6.43;;
14734;SDS011;7458;49.002;8.472;2024-03-23T03:57:50;11.98;;;8.98;;
14734;SDS011;7458;49.002;8.472;2024-03-23T04:00:16;9.88;;;8.48;;
14734;SDS011;7458;49.002;8.472;2024-03-23T04:02:42;10.80;;;8.43;;
14734;SDS011;7458;49.002;8.472;2024-03-23T04:05:08;22.58;;;10.77;;
14734;SDS011;7458;49.002;8.472;2024-03-23T04:07:34;10.35;;;8.13;;
14734;SDS011;7458;49.002;8.472;2024-03-23T04:10:00;10.27;;;8.25;;
14734;SDS011;7458;49.002;8.472;2024-03-23T04:12:27;15.35;;;10.68;;
14734;SDS011;7458;49.002;8.472;2024-03-23T04:14:53;11.05;;;8.43;;
14734;SDS011;7458;49.002;8.472;2024-03-23T04:17:19;13.13;;;8.43;;
14734;SDS011;7458;49.002;8.472;2024-03-23T04:19:46;12.05;;;9.38;;
14734;SDS011;7458;49.002;8.472;2024-03-23T04:22:14;11.27;;;8.55;;
14734;SDS011;7458;49.002;8.472;2024-03-23T04:24:40;11.57;;;9.15;;
14734;SDS011;7458;49.002;8.472;2024-03-23T04:27:07;16.38;;;9.77;;
14734;SDS011;7458;49.002;8.472;2024-03-23T04:29:33;16.55;;;9.73;;
14734;SDS011;7458;49.002;8.472;2024-03-23T04:31:59;12.50;;;9.93;;
14734;SDS011;7458;49.002;8.472;2024-03-23T04:34:26;11.32;;;8.93;;
14734;SDS011;7458;49.002;8.472;2024-03-23T04:36:52;13.57;;;8.23;;
14734;SDS011;7458;49.002;8.472;2024-03-23T04:39:18;12.43;;;8.70;;
14734;SDS011;7458;49.002;8.472;2024-03-23T04:41:44;30.05;;;8.93;;
14734;SDS011;7458;49.002;8.472;2024-03-23T04:44:11;9.60;;;6.93;;
14734;SDS011;7458;49.002;8.472;2024-03-23T04:46:37;12.35;;;7.85;;
14734;SDS011;7458;49.002;8.472;2024-03-23T04:49:03;11.63;;;7.65;;
14734;SDS011;7458;49.002;8.472;2024-03-23T04:51:34;9.82;;;7.45;;
14734;SDS011;7458;49.002;8.472;2024-03-23T04:54:06;9.35;;;6.25;;
14734;SDS011;7458;49.002;8.472;2024-03-23T04:56:32;8.52;;;6.10;;
14734;SDS011;7458;49.002;8.472;2024-03-23T04:58:59;8.05;;;6.65;;
14734;SDS011;7458;49.002;8.472;2024-03-23T05:01:27;10.98;;;6.25;;
14734;SDS011;7458;49.002;8.472;2024-03-23T05:03:53;12.20;;;7.25;;
14734;SDS011;7458;49.002;8.472;2024-03-23T05:06:19;7.10;;;5.03;;
14734;SDS011;7458;49.002;8.472;2024-03-23T05:08:45;9.70;;;7.15;;
14734;SDS011;7458;49.002;8.472;2024-03-23T05:11:11;8.57;;;5.22;;
14734;SDS011;7458;49.002;8.472;2024-03-23T05:13:37;10.15;;;6.35;;
14734;SDS011;7458;49.002;8.472;2024-03-23T05:16:03;9.43;;;6.82;;
14734;SDS011;7458;49.002;8.472;2024-03-23T05:18:29;8.18;;;5.65;;
14734;SDS011;7458;49.002;8.472;2024-03-23T05:20:56;10.63;;;6.57;;
14734;SDS011;7458;49.002;8.472;2024-03-23T05:23:23;10.13;;;6.40;;
14734;SDS011;7458;49.002;8.472;2024-03-23T05:25:49;6.90;;;5.20;;
14734;SDS011;7458;49.002;8.472;2024-03-23T05:28:16;5.80;;;4.13;;
14734;SDS011;7458;49.002;8.472;2024-03-23T05:30:43;4.55;;;3.45;;
14734;SDS011;7458;49.002;8.472;2024-03-23T05:33:15;8.02;;;3.65;;
14734;SDS011;7458;49.002;8.472;2024-03-23T05:35:41;2.95;;;2.13;;
14734;SDS011;7458;49.002;8.472;2024-03-23T05:38:07;4.03;;;2.20;;
14734;SDS011;7458;49.002;8.472;2024-03-23T05:40:33;2.85;;;2.10;;
14734;SDS011;7458;49.002;8.472;2024-03-23T05:43:02;3.30;;;1.73;;
14734;SDS011;7458;49.002;8.472;2024-03-23T05:45:29;3.00;;;1.40;;
14734;SDS011;7458;49.002;8.472;2024-03-23T05:47:55;3.08;;;1.58;;
14734;SDS011;7458;49.002;8.472;2024-03-23T05:50:22;3.75;;;1.60;;
14734;SDS011;7458;49.002;8.472;2024-03-23T05:52:49;1.98;;;1.45;;
14734;SDS011;7458;49.002;8.472;2024-03-23T05:55:15;1.70;;;1.40;;
14734;SDS011;7458;49.002;8.472;2024-03-23T05:57:41;1.10;;;1.00;;
14734;SDS011;7458;49.002;8.472;2024-03-23T06:00:07;1.77;;;1.65;;
14734;SDS011;7458;49.002;8.472;2024-03-23T06:05:11;2.38;;;1.30;;
14734;SDS011;7458;49.002;8.472;2024-03-23T06:07:38;1.15;;;1.05;;
14734;SDS011;7458;49.002;8.472;2024-03-23T06:10:04;2.10;;;1.30;;
14734;SDS011;7458;49.002;8.472;2024-03-23T06:12:31;1.13;;;1.02;;
14734;SDS011;7458;49.002;8.472;2024-03-23T06:14:57;2.35;;;1.42;;
14734;SDS011;7458;49.002;8.472;2024-03-23T06:17:24;1.63;;;0.95;;
14734;SDS011;7458;49.002;8.472;2024-03-23T06:19:51;1.42;;;1.05;;
14734;SDS011;7458;49.002;8.472;2024-03-23T06:22:17;1.60;;;1.02;;
14734;SDS011;7458;49.002;8.472;2024-03-23T06:24:44;1.20;;;1.00;;
14734;SDS011;7458;49.002;8.472;2024-03-23T06:27:10;1.20;;;0.90;;
14734;SDS011;7458;49.002;8.472;2024-03-23T06:29:36;1.17;;;1.05;;
14734;SDS011;7458;49.002;8.472;2024-03-23T06:32:02;1.63;;;1.23;;
14734;SDS011;7458;49.002;8.472;2024-03-23T06:34:28;1.88;;;0.93;;
14734;SDS011;7458;49.002;8.472;2024-03-23T06:36:55;1.63;;;1.13;;
14734;SDS011;7458;49.002;8.472;2024-03-23T06:39:21;0.80;;;0.80;;
14734;SDS011;7458;49.002;8.472;2024-03-23T06:41:53;0.70;;;0.70;;
14734;SDS011;7458;49.002;8.472;2024-03-23T06:44:20;1.42;;;1.33;;
14734;SDS011;7458;49.002;8.472;2024-03-23T06:46:46;0.90;;;0.90;;
14734;SDS011;7458;49.002;8.472;2024-03-23T06:49:14;1.25;;;1.15;;
14734;SDS011;7458;49.002;8.472;2024-03-23T06:51:40;0.80;;;0.80;;
14734;SDS011;7458;49.002;8.472;2024-03-23T06:54:07;1.58;;;1.05;;
14734;SDS011;7458;49.002;8.472;2024-03-23T06:56:33;3.15;;;1.25;;
14734;SDS011;7458;49.002;8.472;2024-03-23T06:58:59;0.70;;;0.70;;
14734;SDS011;7458;49.002;8.472;2024-03-23T07:01:25;2.10;;;1.20;;
14734;SDS011;7458;49.002;8.472;2024-03-23T07:03:53;1.35;;;1.25;;
14734;SDS011;7458;49.002;8.472;2024-03-23T07:06:20;1.10;;;1.00;;
14734;SDS011;7458;49.002;8.472;2024-03-23T07:08:46;0.85;;;0.85;;
14734;SDS011;7458;49.002;8.472;2024-03-23T07:11:18;1.45;;;1.13;;
14734;SDS011;7458;49.002;8.472;2024-03-23T07:13:45;0.63;;;0.63;;
14734;SDS011;7458;49.002;8.472;2024-03-23T07:16:11;1.00;;;0.95;;
14734;SDS011;7458;49.002;8.472;2024-03-23T07:18:38;0.60;;;0.60;;
14734;SDS011;7458;49.002;8.472;2024-03-23T07:21:04;0.47;;;0.47;;
14734;SDS011;7458;49.002;8.472;2024-03-23T07:23:32;1.02;;;0.88;;
14734;SDS011;7458;49.002;8.472;2024-03-23T07:28:25;0.75;;;0.75;;
14734;SDS011;7458;49.002;8.472;2024-03-23T07:33:51;0.70;;;0.70;;
14734;SDS011;7458;49.002;8.472;2024-03-23T07:36:18;0.95;;;0.95;;
14734;SDS011;7458;49.002;8.472;2024-03-23T07:38:44;2.78;;;0.52;;
14734;SDS011;7458;49.002;8.472;2024-03-23T07:41:10;0.60;;;0.60;;
14734;SDS011;7458;49.002;8.472;2024-03-23T07:43:42;0.77;;;0.77;;
14734;SDS011;7458;49.002;8.472;2024-03-23T07:46:08;0.80;;;0.80;;
14734;SDS011;7458;49.002;8.472;2024-03-23T07:48:35;1.05;;;0.70;;
14734;SDS011;7458;49.002;8.472;2024-03-23T07:51:04;0.73;;;0.73;;
14734;SDS011;7458;49.002;8.472;2024-03-23T07:53:34;1.48;;;0.73;;
14734;SDS011;7458;49.002;8.472;2024-03-23T07:56:08;1.00;;;0.95;;
14734;SDS011;7458;49.002;8.472;2024-03-23T07:58:35;1.88;;;0.90;;
14734;SDS011;7458;49.002;8.472;2024-03-23T08:01:05;0.93;;;0.80;;
14734;SDS011;7458;49.002;8.472;2024-03-23T08:03:40;0.93;;;0.90;;
14734;SDS011;7458;49.002;8.472;2024-03-23T08:06:12;1.20;;;1.10;;
14734;SDS011;7458;49.002;8.472;2024-03-23T08:08:45;1.08;;;0.95;;
14734;SDS011;7458;49.002;8.472;2024-03-23T08:11:14;1.00;;;0.85;;
14734;SDS011;7458;49.002;8.472;2024-03-23T08:13:41;0.70;;;0.70;;
14734;SDS011;7458;49.002;8.472;2024-03-23T08:16:09;0.80;;;0.80;;
14734;SDS011;7458;49.002;8.472;2024-03-23T08:18:37;2.22;;;2.05;;
14734;SDS011;7458;49.002;8.472;2024-03-23T08:21:04;0.77;;;0.77;;
14734;SDS011;7458;49.002;8.472;2024-03-23T08:23:31;1.80;;;1.05;;
14734;SDS011;7458;49.002;8.472;2024-03-23T08:26:03;1.67;;;1.20;;
14734;SDS011;7458;49.002;8.472;2024-03-23T08:28:33;3.92;;;1.92;;
14734;SDS011;7458;49.002;8.472;2024-03-23T08:31:01;2.38;;;1.80;;
14734;SDS011;7458;49.002;8.472;2024-03-23T08:33:32;7.35;;;2.60;;
14734;SDS011;7458;49.002;8.472;2024-03-23T08:35:59;6.63;;;2.38;;
14734;SDS011;7458;49.002;8.472;2024-03-23T08:38:30;2.55;;;1.80;;
14734;SDS011;7458;49.002;8.472;2024-03-23T08:40:57;4.40;;;3.03;;
14734;SDS011;7458;49.002;8.472;2024-03-23T08:43:27;9.82;;;2.72;;
14734;SDS011;7458;49.002;8.472;2024-03-23T08:46:02;7.28;;;2.35;;
14734;SDS011;7458;49.002;8.472;2024-03-23T08:48:39;5.70;;;3.03;;
14734;SDS011;7458;49.002;8.472;2024-03-23T08:51:10;3.95;;;1.73;;
14734;SDS011;7458;49.002;8.472;2024-03-23T08:53:38;5.65;;;2.80;;
14734;SDS011;7458;49.002;8.472;2024-03-23T08:56:05;5.05;;;3.35;;
14734;SDS011;7458;49.002;8.472;2024-03-23T08:58:33;10.38;;;3.53;;
14734;SDS011;7458;49.002;8.472;2024-03-23T09:01:04;12.40;;;4.90;;
14734;SDS011;7458;49.002;8.472;2024-03-23T09:03:33;7.47;;;3.50;;
14734;SDS011;7458;49.002;8.472;2024-03-23T09:06:00;7.47;;;3.20;;
14734;SDS011;7458;49.002;8.472;2024-03-23T09:08:36;5.68;;;3.20;;
14734;SDS011;7458;49.002;8.472;2024-03-23T09:11:04;6.45;;;3.33;;
14734;SDS011;7458;49.002;8.472;2024-03-23T09:13:35;4.82;;;2.45;;
14734;SDS011;7458;49.002;8.472;2024-03-23T09:16:02;4.85;;;3.33;;
14734;SDS011;7458;49.002;8.472;2024-03-23T09:18:31;4.50;;;2.70;;
14734;SDS011;7458;49.002;8.472;2024-03-23T09:21:00;6.10;;;3.38;;
14734;SDS011;7458;49.002;8.472;2024-03-23T09:23:26;3.97;;;2.55;;
14734;SDS011;7458;49.002;8.472;2024-03-23T09:25:52;11.05;;;3.00;;
14734;SDS011;7458;49.002;8.472;2024-03-23T09:28:18;6.45;;;2.20;;
14734;SDS011;7458;49.002;8.472;2024-03-23T09:30:45;6.85;;;3.33;;
14734;SDS011;7458;49.002;8.472;2024-03-23T09:33:11;6.70;;;2.65;;
14734;SDS011;7458;49.002;8.472;2024-03-23T09:35:43;5.60;;;2.65;;
14734;SDS011;7458;49.002;8.472;2024-03-23T09:38:12;10.15;;;3.53;;
14734;SDS011;7458;49.002;8.472;2024-03-23T09:40:41;3.05;;;2.42;;
14734;SDS011;7458;49.002;8.472;2024-03-23T09:43:08;4.60;;;2.53;;
14734;SDS011;7458;49.002;8.472;2024-03-23T09:45:36;9.40;;;2.20;;
14734;SDS011;7458;49.002;8.472;2024-03-23T09:48:09;10.68;;;3.55;;
14734;SDS011;7458;49.002;8.472;2024-03-23T09:50:36;8.15;;;2.67;;
14734;SDS011;7458;49.002;8.472;2024-03-23T09:53:10;20.25;;;3.03;;
14734;SDS011;7458;49.002;8.472;2024-03-23T09:55:37;11.18;;;5.15;;
14734;SDS011;7458;49.002;8.472;2024-03-23T09:58:05;3.42;;;2.42;;
14734;SDS011;7458;49.002;8.472;2024-03-23T10:00:32;7.97;;;4.68;;
14734;SDS011;7458;49.002;8.472;2024-03-23T10:02:58;7.20;;;3.50;;
14734;SDS011;7458;49.002;8.472;2024-03-23T10:05:27;4.82;;;3.20;;
14734;SDS011;7458;49.002;8.472;2024-03-23T10:07:54;7.00;;;4.40;;
14734;SDS011;7458;49.002;8.472;2024-03-23T10:10:20;9.40;;;3.80;;
14734;SDS011;7458;49.002;8.472;2024-03-23T10:12:47;5.18;;;2.08;;
14734;SDS011;7458;49.002;8.472;2024-03-23T10:15:18;10.68;;;3.85;;
14734;SDS011;7458;49.002;8.472;2024-03-23T10:17:48;4.80;;;3.55;;
14734;SDS011;7458;49.002;8.472;2024-03-23T10:20:21;7.10;;;4.25;;
14734;SDS011;7458;49.002;8.472;2024-03-23T10:22:50;9.82;;;3.97;;
14734;SDS011;7458;49.002;8.472;2024-03-23T10:25:16;11.48;;;5.53;;
14734;SDS011;7458;49.002;8.472;2024-03-23T10:27:57;4.40;;;3.55;;
14734;SDS011;7458;49.002;8.472;2024-03-23T10:30:25;8.30;;;4.07;;
14734;SDS011;7458;49.002;8.472;2024-03-23T10:33:06;7.65;;;4.43;;
14734;SDS011;7458;49.002;8.472;2024-03-23T10:35:39;6.32;;;3.53;;
14734;SDS011;7458;49.002;8.472;2024-03-23T10:38:05;6.85;;;4.60;;
14734;SDS011;7458;49.002;8.472;2024-03-23T10:40:36;8.13;;;5.80;;
14734;SDS011;7458;49.002;8.472;2024-03-23T10:43:05;10.73;;;4.82;;
14734;SDS011;7458;49.002;8.472;2024-03-23T10:45:33;7.28;;;4.10;;
14734;SDS011;7458;49.002;8.472;2024-03-23T10:47:59;6.60;;;4.15;;
14734;SDS011;7458;49.002;8.472;2024-03-23T10:50:27;13.20;;;4.60;;
14734;SDS011;7458;49.002;8.472;2024-03-23T10:52:54;11.88;;;4.10;;
14734;SDS011;7458;49.002;8.472;2024-03-23T10:55:24;6.60;;;3.75;;
14734;SDS011;7458;49.002;8.472;2024-03-23T10:57:54;9.10;;;4.35;;
14734;SDS011;7458;49.002;8.472;2024-03-23T11:00:24;7.38;;;2.72;;
14734;SDS011;7458;49.002;8.472;2024-03-23T11:02:51;6.57;;;2.45;;
14734;SDS011;7458;49.002;8.472;2024-03-23T11:07:53;5.45;;;3.25;;
14734;SDS011;7458;49.002;8.472;2024-03-23T11:10:29;5.55;;;3.70;;
14734;SDS011;7458;49.002;8.472;2024-03-23T11:12:57;5.90;;;3.28;;
14734;SDS011;7458;49.002;8.472;2024-03-23T11:15:23;4.47;;;3.90;;
14734;SDS011;7458;49.002;8.472;2024-03-23T11:18:02;10.57;;;5.07;;
14734;SDS011;7458;49.002;8.472;2024-03-23T11:20:32;7.10;;;3.85;;
14734;SDS011;7458;49.002;8.472;2024-03-23T11:23:00;7.05;;;3.50;;
14734;SDS011;7458;49.002;8.472;2024-03-23T11:25:27;3.85;;;2.67;;
14734;SDS011;7458;49.002;8.472;2024-03-23T11:27:55;4.65;;;3.72;;
14734;SDS011;7458;49.002;8.472;2024-03-23T11:30:26;5.55;;;3.28;;
14734;SDS011;7458;49.002;8.472;2024-03-23T11:32:55;5.22;;;3.15;;
14734;SDS011;7458;49.002;8.472;2024-03-23T11:38:08;7.50;;;4.07;;
14734;SDS011;7458;49.002;8.472;2024-03-23T11:40:40;19.98;;;3.92;;
14734;SDS011;7458;49.002;8.472;2024-03-23T11:43:16;4.05;;;2.42;;
14734;SDS011;7458;49.002;8.472;2024-03-23T11:45:45;4.10;;;2.70;;
14734;SDS011;7458;49.002;8.472;2024-03-23T11:48:23;6.50;;;3.03;;
14734;SDS011;7458;49.002;8.472;2024-03-23T11:50:50;3.95;;;2.70;;
14734;SDS011;7458;49.002;8.472;2024-03-23T11:53:23;5.40;;;2.63;;
14734;SDS011;7458;49.002;8.472;2024-03-23T11:55:52;6.97;;;2.95;;
14734;SDS011;7458;49.002;8.472;2024-03-23T11:58:24;7.65;;;3.55;;
14734;SDS011;7458;49.002;8.472;2024-03-23T12:00:52;4.53;;;3.38;;
14734;SDS011;7458;49.002;8.472;2024-03-23T12:03:23;5.05;;;3.00;;
14734;SDS011;7458;49.002;8.472;2024-03-23T12:06:00;7.00;;;3.03;;
14734;SDS011;7458;49.002;8.472;2024-03-23T12:11:05;10.57;;;3.00;;
14734;SDS011;7458;49.002;8.472;2024-03-23T12:13:40;4.00;;;2.78;;
14734;SDS011;7458;49.002;8.472;2024-03-23T12:16:09;7.07;;;3.50;;
14734;SDS011;7458;49.002;8.472;2024-03-23T12:18:43;9.43;;;2.67;;
14734;SDS011;7458;49.002;8.472;2024-03-23T12:21:12;4.57;;;2.72;;
14734;SDS011;7458;49.002;8.472;2024-03-23T12:23:41;7.32;;;3.67;;
14734;SDS011;7458;49.002;8.472;2024-03-23T12:26:12;7.05;;;2.92;;
14734;SDS011;7458;49.002;8.472;2024-03-23T12:28:38;9.65;;;2.58;;
14734;SDS011;7458;49.002;8.472;2024-03-23T12:31:05;8.40;;;2.55;;
14734;SDS011;7458;49.002;8.472;2024-03-23T12:33:31;5.38;;;2.60;;
14734;SDS011;7458;49.002;8.472;2024-03-23T12:35:57;14.32;;;3.92;;
14734;SDS011;7458;49.002;8.472;2024-03-23T12:38:23;5.32;;;3.55;;
14734;SDS011;7458;49.002;8.472;2024-03-23T12:40:49;4.25;;;2.65;;
14734;SDS011;7458;49.002;8.472;2024-03-23T12:43:16;15.90;;;4.88;;
14734;SDS011;7458;49.002;8.472;2024-03-23T12:45:46;10.95;;;3.25;;
14734;SDS011;7458;49.002;8.472;2024-03-23T12:48:13;7.78;;;4.18;;
14734;SDS011;7458;49.002;8.472;2024-03-23T12:50:39;6.35;;;2.75;;
14734;SDS011;7458;49.002;8.472;2024-03-23T12:53:05;7.72;;;2.78;;
14734;SDS011;7458;49.002;8.472;2024-03-23T12:55:31;5.55;;;3.20;;
14734;SDS011;7458;49.002;8.472;2024-03-23T12:57:59;6.90;;;3.10;;
14734;SDS011;7458;49.002;8.472;2024-03-23T13:00:25;4.18;;;2.45;;
14734;SDS011;7458;49.002;8.472;2024-03-23T13:02:52;6.07;;;2.22;;
14734;SDS011;7458;49.002;8.472;2024-03-23T13:05:18;6.95;;;1.20;;
14734;SDS011;7458;49.002;8.472;2024-03-23T13:07:44;4.85;;;1.38;;
14734;SDS011;7458;49.002;8.472;2024-03-23T13:10:10;3.85;;;1.50;;
14734;SDS011;7458;49.002;8.472;2024-03-23T13:12:36;8.55;;;1.20;;
14734;SDS011;7458;49.002;8.472;2024-03-23T13:15:02;5.05;;;1.67;;
14734;SDS011;7458;49.002;8.472;2024-03-23T13:17:29;2.00;;;1.50;;
14734;SDS011;7458;49.002;8.472;2024-03-23T13:19:55;3.03;;;1.95;;
14734;SDS011;7458;49.002;8.472;2024-03-23T13:22:22;2.38;;;1.30;;
14734;SDS011;7458;49.002;8.472;2024-03-23T13:24:48;1.83;;;1.15;;
14734;SDS011;7458;49.002;8.472;2024-03-23T13:27:15;1.02;;;0.90;;
14734;SDS011;7458;49.002;8.472;2024-03-23T13:29:41;1.85;;;1.23;;
14734;SDS011;7458;49.002;8.472;2024-03-23T13:32:07;3.67;;;2.50;;
14734;SDS011;7458;49.002;8.472;2024-03-23T13:34:33;3.42;;;1.27;;
14734;SDS011;7458;49.002;8.472;2024-03-23T13:37:00;12.77;;;1.50;;
14734;SDS011;7458;49.002;8.472;2024-03-23T13:39:26;1.17;;;1.08;;
14734;SDS011;7458;49.002;8.472;2024-03-23T13:41:53;2.20;;;1.17;;
14734;SDS011;7458;49.002;8.472;2024-03-23T13:44:22;4.15;;;1.13;;
14734;SDS011;7458;49.002;8.472;2024-03-23T13:46:49;3.25;;;2.25;;
14734;SDS011;7458;49.002;8.472;2024-03-23T13:49:28;1.52;;;1.20;;
14734;SDS011;7458;49.002;8.472;2024-03-23T13:51:56;2.28;;;1.42;;
14734;SDS011;7458;49.002;8.472;2024-03-23T13:54:23;3.85;;;1.20;;
14734;SDS011;7458;49.002;8.472;2024-03-23T13:56:54;4.45;;;1.60;;
14734;SDS011;7458;49.002;8.472;2024-03-23T13:59:21;1.52;;;0.95;;
14734;SDS011;7458;49.002;8.472;2024-03-23T14:01:51;2.47;;;0.95;;
14734;SDS011;7458;49.002;8.472;2024-03-23T14:04:17;2.53;;;2.00;;
14734;SDS011;7458;49.002;8.472;2024-03-23T14:06:47;4.20;;;1.45;;
14734;SDS011;7458;49.002;8.472;2024-03-23T14:09:14;1.13;;;1.02;;
14734;SDS011;7458;49.002;8.472;2024-03-23T14:11:45;2.35;;;1.20;;
14734;SDS011;7458;49.002;8.472;2024-03-23T14:14:12;2.25;;;0.88;;
14734;SDS011;7458;49.002;8.472;2024-03-23T14:16:37;2.28;;;1.60;;
14734;SDS011;7458;49.002;8.472;2024-03-23T14:19:03;2.10;;;1.77;;
14734;SDS011;7458;49.002;8.472;2024-03-23T14:21:32;4.82;;;1.17;;
14734;SDS011;7458;49.002;8.472;2024-03-23T14:23:59;3.25;;;1.25;;
14734;SDS011;7458;49.002;8.472;2024-03-23T14:26:26;1.17;;;1.08;;
14734;SDS011;7458;49.002;8.472;2024-03-23T14:28:52;2.40;;;1.10;;
14734;SDS011;7458;49.002;8.472;2024-03-23T14:31:18;2.05;;;0.98;;
14734;SDS011;7458;49.002;8.472;2024-03-23T14:33:45;1.50;;;1.17;;
14734;SDS011;7458;49.002;8.472;2024-03-23T14:36:15;1.23;;;1.13;;
14734;SDS011;7458;49.002;8.472;2024-03-23T14:38:42;1.02;;;1.00;;
14734;SDS011;7458;49.002;8.472;2024-03-23T14:41:14;3.15;;;1.05;;
14734;SDS011;7458;49.002;8.472;2024-03-23T14:43:41;1.25;;;0.82;;
14734;SDS011;7458;49.002;8.472;2024-03-23T14:46:15;1.02;;;0.93;;
14734;SDS011;7458;49.002;8.472;2024-03-23T14:48:42;2.30;;;2.15;;
14734;SDS011;7458;49.002;8.472;2024-03-23T14:51:09;2.08;;;0.95;;
14734;SDS011;7458;49.002;8.472;2024-03-23T14:53:37;3.40;;;1.65;;
14734;SDS011;7458;49.002;8.472;2024-03-23T14:56:05;3.30;;;1.10;;
14734;SDS011;7458;49.002;8.472;2024-03-23T14:58:32;0.82;;;0.80;;
14734;SDS011;7458;49.002;8.472;2024-03-23T15:01:02;4.53;;;0.95;;
14734;SDS011;7458;49.002;8.472;2024-03-23T15:03:29;3.30;;;1.60;;
14734;SDS011;7458;49.002;8.472;2024-03-23T15:05:58;1.50;;;0.90;;
14734;SDS011;7458;49.002;8.472;2024-03-23T15:08:26;2.63;;;1.40;;
14734;SDS011;7458;49.002;8.472;2024-03-23T15:10:53;1.30;;;1.15;;
14734;SDS011;7458;49.002;8.472;2024-03-23T15:13:19;1.85;;;1.20;;
14734;SDS011;7458;49.002;8.472;2024-03-23T15:15:47;5.00;;;1.40;;
14734;SDS011;7458;49.002;8.472;2024-03-23T15:18:14;5.13;;;1.27;;
14734;SDS011;7458;49.002;8.472;2024-03-23T15:20:41;2.65;;;1.52;;
14734;SDS011;7458;49.002;8.472;2024-03-23T15:23:16;3.03;;;1.85;;
14734;SDS011;7458;49.002;8.472;2024-03-23T15:25:42;1.30;;;1.20;;
14734;SDS011;7458;49.002;8.472;2024-03-23T15:28:08;4.10;;;1.27;;
14734;SDS011;7458;49.002;8.472;2024-03-23T15:30:34;2.47;;;1.02;;
14734;SDS011;7458;49.002;8.472;2024-03-23T15:33:00;3.17;;;1.30;;
14734;SDS011;7458;49.002;8.472;2024-03-23T15:35:27;13.73;;;1.27;;
14734;SDS011;7458;49.002;8.472;2024-03-23T15:37:53;2.90;;;1.02;;
14734;SDS011;7458;49.002;8.472;2024-03-23T15:40:19;2.67;;;1.50;;
14734;SDS011;7458;49.002;8.472;2024-03-23T15:42:45;1.73;;;1.40;;
14734;SDS011;7458;49.002;8.472;2024-03-23T15:45:12;2.47;;;1.20;;
14734;SDS011;7458;49.002;8.472;2024-03-23T15:47:38;2.67;;;1.15;;
14734;SDS011;7458;49.002;8.472;2024-03-23T15:50:04;4.38;;;1.42;;
14734;SDS011;7458;49.002;8.472;2024-03-23T15:52:33;2.50;;;1.27;;
14734;SDS011;7458;49.002;8.472;2024-03-23T15:55:01;3.30;;;1.48;;
14734;SDS011;7458;49.002;8.472;2024-03-23T15:57:32;3.10;;;1.98;;
14734;SDS011;7458;49.002;8.472;2024-03-23T15:59:59;4.85;;;1.73;;
14734;SDS011;7458;49.002;8.472;2024-03-23T16:02:27;2.72;;;1.83;;
14734;SDS011;7458;49.002;8.472;2024-03-23T16:04:53;3.67;;;1.38;;
14734;SDS011;7458;49.002;8.472;2024-03-23T16:07:20;3.92;;;3.08;;